Enterprise, Iowa
Current Conditions -  °F | °C
As of 11:35 PM on Saturday 22 Nov 2014 (Local Time) from KIKV Reporting Station
Overcast Overcast  
Wind Chill: 54°   Ceiling: 1400
Heat Index: 54°   Visibility: 10mi
Dew Point: 50°   Wind: 14mph
Humidity: 88%   Direction: 190°S
Pressure: 29.64"   Gusts: 23mph
Location:  41.8082°N, 93.529°W
Report Text: KIKV 230535Z AUTO 19012G20KT 10SM OVC014 12/10 A2964 RMK AO2
Loading
Personal Weather Stations






























Interactive Weather Map New forecast layout! Learn more

10-Day Weather Forecast

Advertisements
Track Severe Weather on mobile